sensor_id;sensor_type;location;lat;lon;timestamp;pressure;altitude;pressure_sealevel;temperature;humidity
24610;BME280;12758;47.890;11.694;2023-04-26T00:02:03;93707.66;;;6.68;100.00
24610;BME280;12758;47.890;11.694;2023-04-26T00:04:30;93708.31;;;6.96;100.00
24610;BME280;12758;47.890;11.694;2023-04-26T00:06:56;93708.84;;;7.07;100.00
24610;BME280;12758;47.890;11.694;2023-04-26T00:09:23;93701.28;;;7.17;100.00
24610;BME280;12758;47.890;11.694;2023-04-26T00:11:49;93711.13;;;7.22;100.00
24610;BME280;12758;47.890;11.694;2023-04-26T00:14:15;93702.72;;;6.92;100.00
24610;BME280;12758;47.890;11.694;2023-04-26T00:16:41;93698.06;;;7.07;100.00
24610;BME280;12758;47.890;11.694;2023-04-26T00:19:07;93697.06;;;7.03;100.00
24610;BME280;12758;47.890;11.694;2023-04-26T00:21:35;93695.84;;;7.09;100.00
24610;BME280;12758;47.890;11.694;2023-04-26T00:24:01;93693.28;;;7.04;100.00
24610;BME280;12758;47.890;11.694;2023-04-26T00:26:27;93691.59;;;7.16;100.00
24610;BME280;12758;47.890;11.694;2023-04-26T00:28:54;93692.16;;;7.05;100.00
24610;BME280;12758;47.890;11.694;2023-04-26T00:31:20;93697.97;;;6.67;100.00
24610;BME280;12758;47.890;11.694;2023-04-26T00:33:46;93694.53;;;6.75;100.00
24610;BME280;12758;47.890;11.694;2023-04-26T00:36:12;93697.88;;;6.13;100.00
24610;BME280;12758;47.890;11.694;2023-04-26T00:38:39;93698.22;;;6.57;100.00
24610;BME280;12758;47.890;11.694;2023-04-26T00:41:05;93699.78;;;6.35;100.00
24610;BME280;12758;47.890;11.694;2023-04-26T00:43:31;93706.56;;;6.46;100.00
24610;BME280;12758;47.890;11.694;2023-04-26T00:45:57;93697.41;;;6.34;100.00
24610;BME280;12758;47.890;11.694;2023-04-26T00:48:23;93694.41;;;6.80;100.00
24610;BME280;12758;47.890;11.694;2023-04-26T00:50:49;93704.22;;;6.53;100.00
24610;BME280;12758;47.890;11.694;2023-04-26T00:53:16;93709.44;;;6.72;100.00
24610;BME280;12758;47.890;11.694;2023-04-26T00:55:43;93705.44;;;6.70;100.00
24610;BME280;12758;47.890;11.694;2023-04-26T00:58:09;93702.31;;;6.54;100.00
24610;BME280;12758;47.890;11.694;2023-04-26T01:00:35;93703.47;;;6.17;100.00
24610;BME280;12758;47.890;11.694;2023-04-26T01:03:01;93711.06;;;5.87;100.00
24610;BME280;12758;47.890;11.694;2023-04-26T01:05:28;93715.09;;;5.62;100.00
24610;BME280;12758;47.890;11.694;2023-04-26T01:07:54;93714.63;;;4.86;100.00
24610;BME280;12758;47.890;11.694;2023-04-26T01:10:20;93710.72;;;5.52;100.00
24610;BME280;12758;47.890;11.694;2023-04-26T01:12:47;93698.34;;;5.51;100.00
24610;BME280;12758;47.890;11.694;2023-04-26T01:15:13;93709.13;;;5.65;100.00
24610;BME280;12758;47.890;11.694;2023-04-26T01:17:39;93709.88;;;5.93;100.00
24610;BME280;12758;47.890;11.694;2023-04-26T01:20:06;93714.19;;;5.94;100.00
24610;BME280;12758;47.890;11.694;2023-04-26T01:22:34;93708.69;;;5.99;100.00
24610;BME280;12758;47.890;11.694;2023-04-26T01:25:02;93713.13;;;6.18;100.00
24610;BME280;12758;47.890;11.694;2023-04-26T01:27:29;93713.09;;;6.54;100.00
24610;BME280;12758;47.890;11.694;2023-04-26T01:29:55;93718.91;;;6.25;100.00
24610;BME280;12758;47.890;11.694;2023-04-26T01:32:21;93721.44;;;5.80;100.00
24610;BME280;12758;47.890;11.694;2023-04-26T01:34:47;93721.28;;;5.63;100.00
24610;BME280;12758;47.890;11.694;2023-04-26T01:37:13;93720.66;;;5.52;100.00
24610;BME280;12758;47.890;11.694;2023-04-26T01:39:39;93720.66;;;5.10;100.00
24610;BME280;12758;47.890;11.694;2023-04-26T01:42:06;93723.88;;;4.47;100.00
24610;BME280;12758;47.890;11.694;2023-04-26T01:44:32;93734.22;;;4.73;100.00
24610;BME280;12758;47.890;11.694;2023-04-26T01:46:57;93738.66;;;4.31;100.00
24610;BME280;12758;47.890;11.694;2023-04-26T01:49:23;93734.69;;;4.42;100.00
24610;BME280;12758;47.890;11.694;2023-04-26T01:51:49;93738.72;;;4.26;100.00
24610;BME280;12758;47.890;11.694;2023-04-26T01:54:16;93738.28;;;4.18;100.00
24610;BME280;12758;47.890;11.694;2023-04-26T01:56:42;93736.38;;;4.38;100.00
24610;BME280;12758;47.890;11.694;2023-04-26T01:59:08;93734.66;;;4.09;100.00
24610;BME280;12758;47.890;11.694;2023-04-26T02:01:34;93730.22;;;4.18;100.00
24610;BME280;12758;47.890;11.694;2023-04-26T02:04:00;93738.72;;;4.26;100.00
24610;BME280;12758;47.890;11.694;2023-04-26T02:06:26;93739.84;;;4.57;100.00
24610;BME280;12758;47.890;11.694;2023-04-26T02:08:52;93731.22;;;4.23;100.00
24610;BME280;12758;47.890;11.694;2023-04-26T02:11:18;93735.16;;;3.92;100.00
24610;BME280;12758;47.890;11.694;2023-04-26T02:13:45;93742.41;;;4.30;100.00
24610;BME280;12758;47.890;11.694;2023-04-26T02:16:11;93735.66;;;4.13;100.00
24610;BME280;12758;47.890;11.694;2023-04-26T02:18:37;93747.72;;;4.35;100.00
24610;BME280;12758;47.890;11.694;2023-04-26T02:21:06;93736.63;;;4.55;100.00
24610;BME280;12758;47.890;11.694;2023-04-26T02:23:33;93737.59;;;4.46;100.00
24610;BME280;12758;47.890;11.694;2023-04-26T02:25:59;93739.50;;;4.07;100.00
24610;BME280;12758;47.890;11.694;2023-04-26T02:28:25;93730.44;;;4.03;100.00
24610;BME280;12758;47.890;11.694;2023-04-26T02:30:51;93729.47;;;4.83;100.00
24610;BME280;12758;47.890;11.694;2023-04-26T02:33:17;93729.19;;;4.85;100.00
24610;BME280;12758;47.890;11.694;2023-04-26T02:35:43;93726.06;;;5.52;100.00
24610;BME280;12758;47.890;11.694;2023-04-26T02:38:10;93730.44;;;5.75;100.00
24610;BME280;12758;47.890;11.694;2023-04-26T02:40:36;93730.44;;;5.48;100.00
24610;BME280;12758;47.890;11.694;2023-04-26T02:43:02;93725.66;;;5.58;100.00
24610;BME280;12758;47.890;11.694;2023-04-26T02:45:28;93737.63;;;5.25;100.00
24610;BME280;12758;47.890;11.694;2023-04-26T02:47:54;93730.63;;;5.51;100.00
24610;BME280;12758;47.890;11.694;2023-04-26T02:50:20;93732.63;;;5.04;100.00
24610;BME280;12758;47.890;11.694;2023-04-26T02:52:46;93728.84;;;4.40;100.00
24610;BME280;12758;47.890;11.694;2023-04-26T02:55:12;93716.56;;;4.66;100.00
24610;BME280;12758;47.890;11.694;2023-04-26T02:57:38;93706.31;;;5.01;100.00
24610;BME280;12758;47.890;11.694;2023-04-26T03:00:06;93718.19;;;5.28;100.00
24610;BME280;12758;47.890;11.694;2023-04-26T03:02:32;93724.44;;;5.09;100.00
24610;BME280;12758;47.890;11.694;2023-04-26T03:04:59;93723.25;;;5.71;100.00
24610;BME280;12758;47.890;11.694;2023-04-26T03:07:25;93724.94;;;5.39;100.00
24610;BME280;12758;47.890;11.694;2023-04-26T03:09:51;93721.47;;;5.66;100.00
24610;BME280;12758;47.890;11.694;2023-04-26T03:12:17;93727.25;;;5.32;100.00
24610;BME280;12758;47.890;11.694;2023-04-26T03:14:43;93731.03;;;5.86;100.00
24610;BME280;12758;47.890;11.694;2023-04-26T03:17:09;93735.03;;;5.89;100.00
24610;BME280;12758;47.890;11.694;2023-04-26T03:19:35;93728.19;;;6.19;100.00
24610;BME280;12758;47.890;11.694;2023-04-26T03:22:01;93730.88;;;6.19;100.00
24610;BME280;12758;47.890;11.694;2023-04-26T03:24:27;93729.06;;;6.28;100.00
24610;BME280;12758;47.890;11.694;2023-04-26T03:26:53;93727.56;;;6.36;100.00
24610;BME280;12758;47.890;11.694;2023-04-26T03:29:20;93733.16;;;6.39;100.00
24610;BME280;12758;47.890;11.694;2023-04-26T03:31:46;93736.78;;;6.21;100.00
24610;BME280;12758;47.890;11.694;2023-04-26T03:34:12;93734.84;;;6.58;100.00
24610;BME280;12758;47.890;11.694;2023-04-26T03:36:37;93737.97;;;6.51;100.00
24610;BME280;12758;47.890;11.694;2023-04-26T03:39:04;93735.63;;;6.72;100.00
24610;BME280;12758;47.890;11.694;2023-04-26T03:41:30;93733.97;;;6.85;100.00
24610;BME280;12758;47.890;11.694;2023-04-26T03:43:57;93732.91;;;6.94;100.00
24610;BME280;12758;47.890;11.694;2023-04-26T03:46:23;93737.69;;;6.97;100.00
24610;BME280;12758;47.890;11.694;2023-04-26T03:48:49;93740.84;;;6.99;100.00
24610;BME280;12758;47.890;11.694;2023-04-26T03:51:15;93741.84;;;7.04;100.00
24610;BME280;12758;47.890;11.694;2023-04-26T03:53:41;93745.03;;;7.06;100.00
24610;BME280;12758;47.890;11.694;2023-04-26T03:56:08;93739.63;;;7.06;100.00
24610;BME280;12758;47.890;11.694;2023-04-26T03:58:34;93746.63;;;7.07;100.00
24610;BME280;12758;47.890;11.694;2023-04-26T04:01:00;93755.38;;;7.12;100.00
24610;BME280;12758;47.890;11.694;2023-04-26T04:03:26;93751.53;;;7.05;100.00
24610;BME280;12758;47.890;11.694;2023-04-26T04:05:54;93757.66;;;6.96;100.00
24610;BME280;12758;47.890;11.694;2023-04-26T04:08:20;93751.53;;;7.05;100.00
24610;BME280;12758;47.890;11.694;2023-04-26T04:10:46;93761.81;;;7.03;100.00
24610;BME280;12758;47.890;11.694;2023-04-26T04:13:13;93757.03;;;6.99;100.00
24610;BME280;12758;47.890;11.694;2023-04-26T04:15:39;93767.41;;;7.06;100.00
24610;BME280;12758;47.890;11.694;2023-04-26T04:18:05;93759.19;;;7.11;100.00
24610;BME280;12758;47.890;11.694;2023-04-26T04:20:31;93753.25;;;7.00;100.00
24610;BME280;12758;47.890;11.694;2023-04-26T04:22:57;93757.66;;;6.96;100.00
24610;BME280;12758;47.890;11.694;2023-04-26T04:25:23;93760.75;;;7.04;100.00
24610;BME280;12758;47.890;11.694;2023-04-26T04:27:49;93761.22;;;7.06;100.00
24610;BME280;12758;47.890;11.694;2023-04-26T04:30:17;93759.88;;;6.94;100.00
24610;BME280;12758;47.890;11.694;2023-04-26T04:32:43;93761.81;;;7.03;100.00
24610;BME280;12758;47.890;11.694;2023-04-26T04:35:09;93770.41;;;7.05;100.00
24610;BME280;12758;47.890;11.694;2023-04-26T04:37:35;93759.63;;;7.05;100.00
24610;BME280;12758;47.890;11.694;2023-04-26T04:40:03;93762.81;;;7.07;100.00
24610;BME280;12758;47.890;11.694;2023-04-26T04:42:29;93772.50;;;7.08;100.00
24610;BME280;12758;47.890;11.694;2023-04-26T04:44:55;93771.03;;;7.02;100.00
24610;BME280;12758;47.890;11.694;2023-04-26T04:47:24;93775.88;;;6.68;100.00
24610;BME280;12758;47.890;11.694;2023-04-26T04:49:50;93775.19;;;6.63;100.00
24610;BME280;12758;47.890;11.694;2023-04-26T04:52:17;93784.41;;;6.62;100.00
24610;BME280;12758;47.890;11.694;2023-04-26T04:54:44;93784.59;;;6.51;100.00
24610;BME280;12758;47.890;11.694;2023-04-26T04:57:10;93783.72;;;6.20;100.00
24610;BME280;12758;47.890;11.694;2023-04-26T04:59:36;93786.00;;;6.13;100.00
24610;BME280;12758;47.890;11.694;2023-04-26T05:02:02;93786.28;;;5.70;100.00
24610;BME280;12758;47.890;11.694;2023-04-26T05:04:29;93781.31;;;5.77;100.00
24610;BME280;12758;47.890;11.694;2023-04-26T05:06:58;93784.91;;;6.14;100.00
24610;BME280;12758;47.890;11.694;2023-04-26T05:09:24;93793.06;;;5.81;100.00
24610;BME280;12758;47.890;11.694;2023-04-26T05:11:51;93792.88;;;5.91;100.00
24610;BME280;12758;47.890;11.694;2023-04-26T05:14:17;93800.34;;;6.22;100.00
24610;BME280;12758;47.890;11.694;2023-04-26T05:16:43;93797.28;;;6.15;100.00
24610;BME280;12758;47.890;11.694;2023-04-26T05:19:09;93809.22;;;6.36;100.00
24610;BME280;12758;47.890;11.694;2023-04-26T05:21:35;93813.00;;;6.49;100.00
24610;BME280;12758;47.890;11.694;2023-04-26T05:24:01;93800.53;;;6.25;100.00
24610;BME280;12758;47.890;11.694;2023-04-26T05:26:27;93814.00;;;6.39;100.00
24610;BME280;12758;47.890;11.694;2023-04-26T05:28:53;93800.19;;;6.54;100.00
24610;BME280;12758;47.890;11.694;2023-04-26T05:31:19;93800.03;;;6.73;100.00
24610;BME280;12758;47.890;11.694;2023-04-26T05:33:46;93802.53;;;6.70;100.00
24610;BME280;12758;47.890;11.694;2023-04-26T05:36:12;93811.00;;;6.77;100.00
24610;BME280;12758;47.890;11.694;2023-04-26T05:38:38;93805.84;;;6.67;100.00
24610;BME280;12758;47.890;11.694;2023-04-26T05:41:05;93812.53;;;6.33;100.00
24610;BME280;12758;47.890;11.694;2023-04-26T05:43:31;93819.22;;;6.22;100.00
24610;BME280;12758;47.890;11.694;2023-04-26T05:45:57;93812.63;;;6.28;100.00
24610;BME280;12758;47.890;11.694;2023-04-26T05:48:23;93821.22;;;6.02;100.00
24610;BME280;12758;47.890;11.694;2023-04-26T05:50:50;93830.00;;;6.08;100.00
24610;BME280;12758;47.890;11.694;2023-04-26T05:53:16;93825.13;;;5.96;100.00
24610;BME280;12758;47.890;11.694;2023-04-26T05:55:44;93817.63;;;6.21;100.00
24610;BME280;12758;47.890;11.694;2023-04-26T05:58:10;93822.19;;;5.65;100.00
24610;BME280;12758;47.890;11.694;2023-04-26T06:00:36;93822.28;;;5.46;100.00
24610;BME280;12758;47.890;11.694;2023-04-26T06:03:03;93819.00;;;5.77;100.00
24610;BME280;12758;47.890;11.694;2023-04-26T06:05:29;93822.41;;;5.82;100.00
24610;BME280;12758;47.890;11.694;2023-04-26T06:07:55;93821.88;;;5.67;100.00
24610;BME280;12758;47.890;11.694;2023-04-26T06:10:21;93828.72;;;5.45;100.00
24610;BME280;12758;47.890;11.694;2023-04-26T06:12:48;93825.09;;;5.69;100.00
24610;BME280;12758;47.890;11.694;2023-04-26T06:15:14;93824.06;;;5.65;100.00
24610;BME280;12758;47.890;11.694;2023-04-26T06:17:41;93828.38;;;5.79;100.00
24610;BME280;12758;47.890;11.694;2023-04-26T06:20:07;93833.19;;;5.96;100.00
24610;BME280;12758;47.890;11.694;2023-04-26T06:22:33;93831.41;;;6.05;100.00
24610;BME280;12758;47.890;11.694;2023-04-26T06:24:59;93834.81;;;6.11;100.00
24610;BME280;12758;47.890;11.694;2023-04-26T06:27:26;93834.81;;;6.11;100.00
24610;BME280;12758;47.890;11.694;2023-04-26T06:29:52;93839.38;;;5.97;100.00
24610;BME280;12758;47.890;11.694;2023-04-26T06:32:18;93845.28;;;6.13;100.00
24610;BME280;12758;47.890;11.694;2023-04-26T06:34:44;93847.16;;;6.12;100.00
24610;BME280;12758;47.890;11.694;2023-04-26T06:37:10;93840.97;;;6.39;100.00
24610;BME280;12758;47.890;11.694;2023-04-26T06:39:36;93846.88;;;6.14;100.00
24610;BME280;12758;47.890;11.694;2023-04-26T06:42:03;93844.38;;;6.03;100.00
24610;BME280;12758;47.890;11.694;2023-04-26T06:44:29;93843.16;;;6.10;100.00
24610;BME280;12758;47.890;11.694;2023-04-26T06:46:56;93849.47;;;6.19;100.00
24610;BME280;12758;47.890;11.694;2023-04-26T06:49:22;93856.75;;;6.04;100.00
24610;BME280;12758;47.890;11.694;2023-04-26T06:51:48;93851.94;;;6.29;100.00
24610;BME280;12758;47.890;11.694;2023-04-26T06:54:14;93856.63;;;6.37;100.00
24610;BME280;12758;47.890;11.694;2023-04-26T06:56:40;93854.53;;;6.06;100.00
24610;BME280;12758;47.890;11.694;2023-04-26T06:59:06;93867.75;;;5.94;100.00
24610;BME280;12758;47.890;11.694;2023-04-26T07:01:33;93863.91;;;5.81;100.00
24610;BME280;12758;47.890;11.694;2023-04-26T07:04:00;93866.69;;;5.90;100.00
24610;BME280;12758;47.890;11.694;2023-04-26T07:06:28;93862.94;;;6.19;100.00
24610;BME280;12758;47.890;11.694;2023-04-26T07:08:54;93863.94;;;6.23;100.00
24610;BME280;12758;47.890;11.694;2023-04-26T07:11:20;93860.50;;;5.90;100.00
24610;BME280;12758;47.890;11.694;2023-04-26T07:13:46;93861.09;;;5.73;100.00
24610;BME280;12758;47.890;11.694;2023-04-26T07:16:12;93850.91;;;5.83;100.00
24610;BME280;12758;47.890;11.694;2023-04-26T07:18:38;93849.28;;;6.01;100.00
24610;BME280;12758;47.890;11.694;2023-04-26T07:21:05;93852.97;;;6.05;100.00
24610;BME280;12758;47.890;11.694;2023-04-26T07:23:31;93853.75;;;6.06;100.00
24610;BME280;12758;47.890;11.694;2023-04-26T07:25:57;93848.09;;;6.07;100.00
24610;BME280;12758;47.890;11.694;2023-04-26T07:28:25;93841.38;;;5.91;100.00
24610;BME280;12758;47.890;11.694;2023-04-26T07:30:52;93843.56;;;5.89;100.00
24610;BME280;12758;47.890;11.694;2023-04-26T07:33:18;93848.97;;;6.17;100.00
24610;BME280;12758;47.890;11.694;2023-04-26T07:35:44;93846.88;;;6.27;100.00
24610;BME280;12758;47.890;11.694;2023-04-26T07:38:18;93840.56;;;6.32;100.00
24610;BME280;12758;47.890;11.694;2023-04-26T07:40:44;93841.13;;;6.57;100.00
24610;BME280;12758;47.890;11.694;2023-04-26T07:43:10;93844.34;;;6.59;100.00
24610;BME280;12758;47.890;11.694;2023-04-26T07:45:36;93843.53;;;6.44;100.00
24610;BME280;12758;47.890;11.694;2023-04-26T07:48:02;93838.06;;;6.49;100.00
24610;BME280;12758;47.890;11.694;2023-04-26T07:50:28;93833.97;;;6.52;100.00
24610;BME280;12758;47.890;11.694;2023-04-26T07:52:55;93830.78;;;6.36;100.00
24610;BME280;12758;47.890;11.694;2023-04-26T07:55:21;93832.81;;;6.17;100.00
24610;BME280;12758;47.890;11.694;2023-04-26T07:57:47;93847.56;;;6.05;100.00
24610;BME280;12758;47.890;11.694;2023-04-26T08:00:14;93844.56;;;6.21;100.00
24610;BME280;12758;47.890;11.694;2023-04-26T08:02:41;93845.34;;;5.80;100.00
24610;BME280;12758;47.890;11.694;2023-04-26T08:05:07;93849.97;;;6.07;100.00
24610;BME280;12758;47.890;11.694;2023-04-26T08:07:33;93843.75;;;6.34;100.00
24610;BME280;12758;47.890;11.694;2023-04-26T08:09:59;93836.53;;;6.57;100.00
24610;BME280;12758;47.890;11.694;2023-04-26T08:12:26;93846.34;;;6.25;100.00
24610;BME280;12758;47.890;11.694;2023-04-26T08:14:52;93843.19;;;6.23;100.00
24610;BME280;12758;47.890;11.694;2023-04-26T08:17:18;93836.38;;;6.26;100.00
24610;BME280;12758;47.890;11.694;2023-04-26T08:19:44;93839.75;;;6.32;100.00
24610;BME280;12758;47.890;11.694;2023-04-26T08:22:10;93831.19;;;6.29;100.00
24610;BME280;12758;47.890;11.694;2023-04-26T08:24:36;93835.34;;;6.49;100.00
24610;BME280;12758;47.890;11.694;2023-04-26T08:27:02;93831.38;;;6.47;100.00
24610;BME280;12758;47.890;11.694;2023-04-26T08:29:29;93833.13;;;6.51;100.00
24610;BME280;12758;47.890;11.694;2023-04-26T08:31:55;93847.63;;;6.56;100.00
24610;BME280;12758;47.890;11.694;2023-04-26T08:34:21;93836.56;;;6.43;100.00
24610;BME280;12758;47.890;11.694;2023-04-26T08:36:47;93843.38;;;6.27;100.00
24610;BME280;12758;47.890;11.694;2023-04-26T08:39:13;93839.38;;;6.24;100.00
24610;BME280;12758;47.890;11.694;2023-04-26T08:41:42;93836.94;;;6.50;100.00
24610;BME280;12758;47.890;11.694;2023-04-26T08:44:08;93837.16;;;6.40;100.00
24610;BME280;12758;47.890;11.694;2023-04-26T08:46:39;93830.13;;;6.67;100.00
24610;BME280;12758;47.890;11.694;2023-04-26T08:49:12;93827.88;;;6.83;100.00
24610;BME280;12758;47.890;11.694;2023-04-26T08:51:42;93835.88;;;6.74;100.00
24610;BME280;12758;47.890;11.694;2023-04-26T08:54:09;93827.00;;;6.37;100.00
24610;BME280;12758;47.890;11.694;2023-04-26T08:56:35;93825.03;;;6.65;100.00
24610;BME280;12758;47.890;11.694;2023-04-26T08:59:02;93833.09;;;6.79;100.00
24610;BME280;12758;47.890;11.694;2023-04-26T09:01:28;93827.06;;;6.82;100.00
24610;BME280;12758;47.890;11.694;2023-04-26T09:03:55;93830.66;;;6.91;100.00
24610;BME280;12758;47.890;11.694;2023-04-26T09:06:22;93832.00;;;7.03;100.00
24610;BME280;12758;47.890;11.694;2023-04-26T09:08:48;93829.00;;;7.04;100.00
24610;BME280;12758;47.890;11.694;2023-04-26T09:11:16;93838.38;;;7.07;100.00
24610;BME280;12758;47.890;11.694;2023-04-26T09:13:42;93833.16;;;6.88;100.00
24610;BME280;12758;47.890;11.694;2023-04-26T09:16:08;93835.44;;;6.94;100.00
24610;BME280;12758;47.890;11.694;2023-04-26T09:18:34;93826.84;;;6.92;100.00
24610;BME280;12758;47.890;11.694;2023-04-26T09:21:12;93830.94;;;6.90;100.00
24610;BME280;12758;47.890;11.694;2023-04-26T09:23:55;93833.94;;;6.88;100.00
24610;BME280;12758;47.890;11.694;2023-04-26T09:26:21;93832.13;;;6.97;100.00
24610;BME280;12758;47.890;11.694;2023-04-26T09:28:47;93828.06;;;6.86;100.00
24610;BME280;12758;47.890;11.694;2023-04-26T09:31:21;93830.22;;;6.98;100.00
24610;BME280;12758;47.890;11.694;2023-04-26T09:34:00;93831.81;;;6.99;100.00
24610;BME280;12758;47.890;11.694;2023-04-26T09:36:26;93836.16;;;7.09;100.00
24610;BME280;12758;47.890;11.694;2023-04-26T09:38:52;93832.00;;;7.03;100.00
24610;BME280;12758;47.890;11.694;2023-04-26T09:41:18;93828.03;;;7.00;100.00
24610;BME280;12758;47.890;11.694;2023-04-26T09:43:44;93820.72;;;7.23;100.00
24610;BME280;12758;47.890;11.694;2023-04-26T09:46:21;93821.94;;;7.17;100.00
24610;BME280;12758;47.890;11.694;2023-04-26T09:48:59;93825.44;;;7.17;100.00
24610;BME280;12758;47.890;11.694;2023-04-26T09:51:25;93830.47;;;7.33;100.00
24610;BME280;12758;47.890;11.694;2023-04-26T09:53:53;93824.00;;;7.42;100.00
24610;BME280;12758;47.890;11.694;2023-04-26T09:56:19;93820.34;;;7.16;100.00
24610;BME280;12758;47.890;11.694;2023-04-26T09:58:54;93823.72;;;7.21;100.00
24610;BME280;12758;47.890;11.694;2023-04-26T10:01:23;93825.25;;;7.36;100.00
24610;BME280;12758;47.890;11.694;2023-04-26T10:03:49;93833.09;;;7.24;100.00
24610;BME280;12758;47.890;11.694;2023-04-26T10:06:16;93819.16;;;7.53;100.00
24610;BME280;12758;47.890;11.694;2023-04-26T10:08:43;93819.59;;;7.78;100.00
24610;BME280;12758;47.890;11.694;2023-04-26T10:11:10;93811.50;;;7.86;100.00
24610;BME280;12758;47.890;11.694;2023-04-26T10:13:37;93811.25;;;7.97;100.00
24610;BME280;12758;47.890;11.694;2023-04-26T10:16:04;93817.50;;;8.14;100.00
24610;BME280;12758;47.890;11.694;2023-04-26T10:18:31;93813.25;;;8.22;100.00
24610;BME280;12758;47.890;11.694;2023-04-26T10:20:58;93810.13;;;7.98;100.00
24610;BME280;12758;47.890;11.694;2023-04-26T10:23:25;93820.03;;;7.71;100.00
24610;BME280;12758;47.890;11.694;2023-04-26T10:25:53;93808.00;;;7.46;100.00
24610;BME280;12758;47.890;11.694;2023-04-26T10:28:54;93798.97;;;7.90;100.00
24610;BME280;12758;47.890;11.694;2023-04-26T10:31:21;93811.94;;;7.80;100.00
24610;BME280;12758;47.890;11.694;2023-04-26T10:39:22;93801.75;;;7.68;100.00
24610;BME280;12758;47.890;11.694;2023-04-26T10:41:50;93808.84;;;7.64;100.00
24610;BME280;12758;47.890;11.694;2023-04-26T10:44:36;93806.94;;;7.56;100.00
24610;BME280;12758;47.890;11.694;2023-04-26T10:47:04;93805.13;;;7.20;100.00
24610;BME280;12758;47.890;11.694;2023-04-26T10:49:33;93803.66;;;7.36;100.00
24610;BME280;12758;47.890;11.694;2023-04-26T10:52:10;93804.53;;;7.23;100.00
24610;BME280;12758;47.890;11.694;2023-04-26T10:54:53;93800.78;;;7.41;100.00
24610;BME280;12758;47.890;11.694;2023-04-26T10:57:20;93801.53;;;7.56;100.00
24610;BME280;12758;47.890;11.694;2023-04-26T11:02:55;93788.25;;;7.68;100.00
24610;BME280;12758;47.890;11.694;2023-04-26T11:05:51;93791.22;;;7.98;100.00
24610;BME280;12758;47.890;11.694;2023-04-26T11:08:23;93790.28;;;8.11;100.00
24610;BME280;12758;47.890;11.694;2023-04-26T11:10:56;93776.00;;;8.19;100.00
24610;BME280;12758;47.890;11.694;2023-04-26T11:13:23;93770.94;;;8.26;100.00
24610;BME280;12758;47.890;11.694;2023-04-26T11:15:51;93772.19;;;8.20;100.00
24610;BME280;12758;47.890;11.694;2023-04-26T11:18:18;93768.91;;;8.40;100.00
24610;BME280;12758;47.890;11.694;2023-04-26T11:20:44;93770.81;;;8.40;100.00
24610;BME280;12758;47.890;11.694;2023-04-26T11:23:10;93763.22;;;8.51;100.00
24610;BME280;12758;47.890;11.694;2023-04-26T11:25:38;93770.47;;;8.33;100.00
24610;BME280;12758;47.890;11.694;2023-04-26T11:28:04;93759.97;;;8.23;100.00
24610;BME280;12758;47.890;11.694;2023-04-26T11:30:32;93753.81;;;8.39;100.00
24610;BME280;12758;47.890;11.694;2023-04-26T11:32:58;93764.09;;;8.29;100.00
24610;BME280;12758;47.890;11.694;2023-04-26T11:35:25;93755.03;;;8.16;100.00
24610;BME280;12758;47.890;11.694;2023-04-26T11:37:52;93757.00;;;8.42;100.00
24610;BME280;12758;47.890;11.694;2023-04-26T11:40:18;93750.63;;;8.72;100.00
24610;BME280;12758;47.890;11.694;2023-04-26T11:42:44;93761.44;;;8.72;100.00
24610;BME280;12758;47.890;11.694;2023-04-26T11:45:10;93751.59;;;8.94;100.00
24610;BME280;12758;47.890;11.694;2023-04-26T11:47:37;93754.78;;;8.78;100.00
24610;BME280;12758;47.890;11.694;2023-04-26T11:50:05;93753.81;;;9.09;100.00
24610;BME280;12758;47.890;11.694;2023-04-26T11:52:32;93756.19;;;9.02;100.00
24610;BME280;12758;47.890;11.694;2023-04-26T11:55:01;93751.41;;;9.07;100.00
24610;BME280;12758;47.890;11.694;2023-04-26T11:57:29;93753.47;;;9.10;100.00
24610;BME280;12758;47.890;11.694;2023-04-26T12:00:09;93755.34;;;9.27;100.00
24610;BME280;12758;47.890;11.694;2023-04-26T12:02:43;93755.34;;;9.27;100.00
24610;BME280;12758;47.890;11.694;2023-04-26T12:05:09;93765.28;;;9.06;100.00
24610;BME280;12758;47.890;11.694;2023-04-26T12:07:35;93751.59;;;8.94;100.00
24610;BME280;12758;47.890;11.694;2023-04-26T12:10:15;93763.34;;;9.15;100.00
24610;BME280;12758;47.890;11.694;2023-04-26T12:12:46;93756.97;;;9.11;100.00
24610;BME280;12758;47.890;11.694;2023-04-26T12:15:14;93761.88;;;9.18;100.00
24610;BME280;12758;47.890;11.694;2023-04-26T12:17:50;93757.97;;;8.80;100.00
24610;BME280;12758;47.890;11.694;2023-04-26T12:20:17;93758.94;;;8.67;100.00
24610;BME280;12758;47.890;11.694;2023-04-26T12:22:56;93765.44;;;8.66;100.00
24610;BME280;12758;47.890;11.694;2023-04-26T12:25:22;93755.41;;;8.75;100.00
24610;BME280;12758;47.890;11.694;2023-04-26T12:27:48;93764.00;;;8.95;100.00
24610;BME280;12758;47.890;11.694;2023-04-26T12:30:14;93758.72;;;9.16;100.00
24610;BME280;12758;47.890;11.694;2023-04-26T12:32:41;93756.31;;;9.14;100.00
24610;BME280;12758;47.890;11.694;2023-04-26T12:35:07;93762.72;;;9.01;100.00
24610;BME280;12758;47.890;11.694;2023-04-26T12:37:33;93754.09;;;9.07;100.00
24610;BME280;12758;47.890;11.694;2023-04-26T12:39:59;93753.81;;;9.09;100.00
24610;BME280;12758;47.890;11.694;2023-04-26T12:42:25;93757.94;;;9.15;100.00
24610;BME280;12758;47.890;11.694;2023-04-26T12:44:51;93750.56;;;9.24;100.00
24610;BME280;12758;47.890;11.694;2023-04-26T12:47:17;93752.75;;;9.40;100.00
24610;BME280;12758;47.890;11.694;2023-04-26T12:49:44;93745.16;;;9.80;100.00
24610;BME280;12758;47.890;11.694;2023-04-26T12:52:10;93747.34;;;9.48;100.00
24610;BME280;12758;47.890;11.694;2023-04-26T12:54:36;93747.53;;;9.82;100.00
24610;BME280;12758;47.890;11.694;2023-04-26T12:57:02;93733.25;;;9.64;100.00
24610;BME280;12758;47.890;11.694;2023-04-26T12:59:28;93739.63;;;9.59;100.00